Terminal Aerodrome Forecast
Issued by NWS

Home | Current Version | Previous Version | Text Only | Print | Product List | Glossary On
Versions: 1 2 3 4 5 6 7 8 9 10 11 12 13 14 15 16
000
FTUS46 KLOX 260537
TAFSBA
TAF
KSBA 260537Z 2606/2706 28008KT P6SM SCT200 WS010/36030KT
     FM261000 36009KT P6SM SCT200
     FM261800 23012KT P6SM SCT200
     FM262100 26020G28KT P6SM SCT200
     FM270100 30010KT P6SM SCT200 WS010/36035KT=

USA.gov is the U.S. government's official web portal to all federal, state and local government web resources and services.